Time;durP1;ratioP1;P1;durP2;ratioP2;P2;SDS_P1;SDS_P2;PMS_P1;PMS_P2;Temp;Humidity;BMP_temperature;BMP_pressure;BME280_temperature;BME280_humidity;BME280_pressure;Samples;Min_cycle;Max_cycle;Signal;HPM_P1;HPM_P2
2023/06/25 00:00:57;;;;;;;10.80;7.40;;;;;;;15.78;52.08;102160.88;4976261;28;20042;-69
2023/06/25 00:03:23;;;;;;;11.35;6.53;;;;;;;15.66;52.41;102150.84;4962239;28;20050;-69
2023/06/25 00:05:49;;;;;;;9.93;6.35;;;;;;;15.60;52.38;102157.22;4961688;28;20042;-69
2023/06/25 00:08:14;;;;;;;10.70;6.95;;;;;;;15.58;52.62;102149.38;4963063;28;20058;-69
2023/06/25 00:10:41;;;;;;;9.63;7.28;;;;;;;15.63;52.25;102151.81;4962152;28;20197;-69
2023/06/25 00:13:07;;;;;;;13.25;7.30;;;;;;;15.66;52.42;102153.47;4959593;28;20096;-69
2023/06/25 00:15:32;;;;;;;12.52;8.05;;;;;;;15.74;52.03;102148.75;4962551;28;20026;-70
2023/06/25 00:17:58;;;;;;;11.25;6.65;;;;;;;15.82;51.86;102149.31;4977366;28;20531;-69
2023/06/25 00:20:24;;;;;;;9.18;6.75;;;;;;;15.83;51.70;102145.72;4965860;28;20049;-70
2023/06/25 00:22:50;;;;;;;12.35;7.05;;;;;;;15.72;51.86;102138.25;4959899;28;20070;-70
2023/06/25 00:25:16;;;;;;;11.50;7.80;;;;;;;15.54;52.22;102142.53;4963160;28;20093;-70
2023/06/25 00:27:46;;;;;;;10.88;7.38;;;;;;;15.48;52.80;102147.19;4974488;28;20061;-69
2023/06/25 00:30:16;;;;;;;8.68;6.13;;;;;;;15.41;53.07;102146.56;4963877;28;20043;-70
2023/06/25 00:32:43;;;;;;;14.95;8.38;;;;;;;15.36;53.11;102138.84;4974133;28;20125;-68
2023/06/25 00:35:12;;;;;;;14.48;7.95;;;;;;;15.30;53.31;102140.88;4961416;28;20034;-71
2023/06/25 00:37:40;;;;;;;12.25;6.78;;;;;;;15.29;53.54;102139.19;4960448;28;20050;-71
2023/06/25 00:40:08;;;;;;;12.35;7.45;;;;;;;15.41;53.22;102141.31;4971333;28;20042;-73
2023/06/25 00:42:44;;;;;;;11.40;8.05;;;;;;;15.37;53.08;102137.94;4978163;28;20125;-72
2023/06/25 00:45:13;;;;;;;11.52;8.45;;;;;;;15.22;53.19;102135.94;4964634;28;20042;-72
2023/06/25 00:47:45;;;;;;;13.48;7.38;;;;;;;15.14;53.78;102138.81;4975390;28;20505;-70
2023/06/25 00:50:11;;;;;;;10.90;7.70;;;;;;;15.11;53.82;102135.47;4966363;28;20494;-70
2023/06/25 00:52:40;;;;;;;10.35;6.78;;;;;;;15.16;53.73;102131.72;4966205;28;20034;-70
2023/06/25 00:55:08;;;;;;;11.35;6.88;;;;;;;15.31;53.29;102137.34;4954067;28;20573;-70
2023/06/25 00:57:37;;;;;;;18.50;8.30;;;;;;;15.36;53.17;102135.38;4974669;28;20050;-71
2023/06/25 01:00:04;;;;;;;9.65;7.00;;;;;;;15.41;52.93;102130.75;4952265;28;22167;-70
2023/06/25 01:02:43;;;;;;;11.40;8.07;;;;;;;15.31;52.96;102132.06;4959449;28;20061;-70
2023/06/25 01:05:33;;;;;;;11.32;6.68;;;;;;;15.31;52.90;102132.06;4952195;28;20023;-70
2023/06/25 01:08:00;;;;;;;11.80;8.02;;;;;;;15.28;52.83;102132.19;4946180;28;20050;-69
2023/06/25 01:10:25;;;;;;;14.55;8.32;;;;;;;15.14;53.02;102137.97;4968336;28;20462;-70
2023/06/25 01:12:52;;;;;;;13.93;8.02;;;;;;;14.97;53.31;102141.28;4960931;28;20034;-70
2023/06/25 01:15:18;;;;;;;15.05;8.73;;;;;;;14.91;53.66;102136.22;4964632;28;20038;-69
2023/06/25 01:17:43;;;;;;;11.45;7.22;;;;;;;14.90;53.94;102130.13;4969826;28;20666;-69
2023/06/25 01:20:13;;;;;;;15.05;8.25;;;;;;;14.93;54.02;102126.50;4981146;28;20502;-71
2023/06/25 01:22:42;;;;;;;10.15;7.10;;;;;;;14.91;54.01;102125.72;4978396;28;20078;-70
2023/06/25 01:25:09;;;;;;;10.10;6.65;;;;;;;14.95;54.06;102122.91;4979957;28;20045;-70
2023/06/25 01:27:35;;;;;;;8.38;6.10;;;;;;;15.01;54.04;102123.56;4960036;28;20042;-69
2023/06/25 01:30:01;;;;;;;11.55;6.45;;;;;;;15.04;53.67;102121.69;4965954;28;20046;-69
2023/06/25 01:32:27;;;;;;;11.68;7.00;;;;;;;15.08;53.72;102120.66;4978832;28;20046;-69
2023/06/25 01:34:53;;;;;;;9.52;5.55;;;;;;;15.12;53.49;102116.09;4979871;28;20039;-70
2023/06/25 01:37:18;;;;;;;10.02;5.93;;;;;;;15.13;53.27;102115.19;4960967;28;20049;-70
2023/06/25 01:39:49;;;;;;;8.05;5.53;;;;;;;15.08;53.31;102111.88;4964453;28;20045;-69
2023/06/25 01:42:14;;;;;;;11.20;6.13;;;;;;;15.07;53.32;102110.16;4963101;28;20046;-69
2023/06/25 01:44:40;;;;;;;9.18;5.32;;;;;;;15.10;53.28;102110.03;4971675;28;20546;-69
2023/06/25 01:47:05;;;;;;;8.52;5.82;;;;;;;15.16;53.00;102102.75;4964427;28;20181;-70
2023/06/25 01:49:31;;;;;;;10.43;5.15;;;;;;;15.15;53.03;102101.03;4963800;28;20041;-69
2023/06/25 01:51:57;;;;;;;11.30;6.10;;;;;;;15.07;53.08;102105.75;4965118;28;20030;-77
2023/06/25 01:54:22;;;;;;;9.77;6.63;;;;;;;15.09;53.21;102097.81;4981829;28;20030;-71
2023/06/25 01:56:48;;;;;;;8.05;5.85;;;;;;;14.98;53.23;102099.06;4965165;28;20027;-71
2023/06/25 01:59:14;;;;;;;9.32;6.07;;;;;;;14.93;53.41;102092.28;4966009;28;20192;-68
2023/06/25 02:01:40;;;;;;;10.77;6.18;;;;;;;14.95;53.40;102095.72;4955147;28;20680;-68
2023/06/25 02:04:05;;;;;;;11.00;6.65;;;;;;;15.07;53.25;102094.38;4969772;28;20419;-71
2023/06/25 02:06:31;;;;;;;10.48;6.65;;;;;;;15.12;52.67;102090.63;4951109;28;20518;-70
2023/06/25 02:08:56;;;;;;;10.65;6.43;;;;;;;15.00;52.49;102085.00;4976639;28;20066;-71
2023/06/25 02:11:22;;;;;;;9.15;6.65;;;;;;;14.96;52.86;102087.75;4978797;28;20026;-71
2023/06/25 02:13:47;;;;;;;13.20;7.15;;;;;;;14.93;52.65;102087.88;4953571;28;20527;-75
2023/06/25 02:16:13;;;;;;;9.98;7.38;;;;;;;14.75;53.46;102088.59;4969577;28;20758;-75
2023/06/25 02:18:40;;;;;;;12.82;7.40;;;;;;;14.64;54.12;102081.09;4972639;28;20090;-73
2023/06/25 02:21:06;;;;;;;15.77;9.48;;;;;;;14.55;54.51;102082.31;4967122;28;20081;-70
2023/06/25 02:23:31;;;;;;;13.57;8.80;;;;;;;14.64;54.32;102081.09;4978966;28;20510;-70
2023/06/25 02:25:57;;;;;;;14.23;8.23;;;;;;;14.62;54.19;102076.81;4979347;28;20058;-69
2023/06/25 02:28:22;;;;;;;10.88;7.25;;;;;;;14.54;54.71;102071.84;4968047;28;20038;-70
2023/06/25 02:30:48;;;;;;;12.02;7.68;;;;;;;14.58;54.67;102069.97;4966077;28;20410;-70
2023/06/25 02:33:13;;;;;;;11.32;7.22;;;;;;;14.65;54.26;102072.28;4960469;28;20523;-70
2023/06/25 02:35:39;;;;;;;12.55;7.60;;;;;;;14.72;53.77;102073.78;4964272;28;20030;-69
2023/06/25 02:38:05;;;;;;;14.65;7.30;;;;;;;14.70;53.76;102075.63;4962738;28;20042;-71
2023/06/25 02:40:32;;;;;;;12.30;6.53;;;;;;;14.72;53.80;102068.53;4982362;28;20038;-75
2023/06/25 02:42:58;;;;;;;10.13;5.78;;;;;;;14.80;53.34;102065.56;4969815;28;20069;-72
2023/06/25 02:45:24;;;;;;;9.57;6.20;;;;;;;14.74;53.45;102060.53;4967975;28;20487;-72
2023/06/25 02:47:51;;;;;;;12.13;6.60;;;;;;;14.73;53.33;102059.69;4969690;28;20629;-72
2023/06/25 02:50:17;;;;;;;9.88;5.68;;;;;;;14.79;53.48;102057.72;4979487;28;20038;-71
2023/06/25 02:52:45;;;;;;;11.55;7.40;;;;;;;14.81;53.50;102066.44;4968246;28;20615;-71
2023/06/25 02:55:10;;;;;;;11.38;5.93;;;;;;;14.80;52.95;102056.84;4962459;28;20140;-70
2023/06/25 02:57:36;;;;;;;11.15;6.85;;;;;;;14.85;52.75;102063.63;4965127;28;20070;-70
2023/06/25 03:00:04;;;;;;;9.73;6.38;;;;;;;14.87;52.71;102063.56;4962725;28;20034;-71
2023/06/25 03:02:30;;;;;;;13.00;6.32;;;;;;;14.75;52.90;102055.22;4966838;28;20038;-70
2023/06/25 03:04:56;;;;;;;8.20;5.70;;;;;;;14.71;52.88;102053.63;4963839;28;20479;-70
2023/06/25 03:07:22;;;;;;;9.73;5.90;;;;;;;14.68;53.04;102058.16;4980031;28;20047;-70
2023/06/25 03:09:49;;;;;;;7.18;5.53;;;;;;;14.62;53.25;102056.63;4964341;28;20042;-72
2023/06/25 03:12:15;;;;;;;10.98;7.10;;;;;;;14.61;53.50;102052.25;4963188;28;20035;-71
2023/06/25 03:14:41;;;;;;;13.35;6.63;;;;;;;14.53;53.81;102052.56;4970374;28;20062;-72
2023/06/25 03:17:07;;;;;;;11.50;7.05;;;;;;;14.44;54.21;102054.69;4976411;28;20574;-72
2023/06/25 03:19:32;;;;;;;16.27;6.97;;;;;;;14.36;54.31;102052.31;4979603;28;20070;-72
2023/06/25 03:22:00;;;;;;;11.77;7.57;;;;;;;14.34;54.92;102057.66;4951458;28;20085;-71
2023/06/25 03:24:28;;;;;;;12.98;7.47;;;;;;;14.39;54.77;102048.69;4964764;28;20038;-71
2023/06/25 03:26:54;;;;;;;10.60;6.30;;;;;;;14.40;54.75;102055.69;4975405;28;20075;-70
2023/06/25 03:29:19;;;;;;;10.77;7.10;;;;;;;14.36;54.71;102061.03;4961837;28;20034;-71
2023/06/25 03:31:45;;;;;;;13.00;6.00;;;;;;;14.35;54.60;102051.44;4949080;28;20835;-69
2023/06/25 03:34:13;;;;;;;12.60;6.45;;;;;;;14.38;54.90;102052.25;4978246;28;20041;-69
2023/06/25 03:36:39;;;;;;;12.18;5.95;;;;;;;14.38;54.53;102047.84;4962764;28;20026;-69
2023/06/25 03:39:05;;;;;;;7.38;5.97;;;;;;;14.58;54.07;102035.75;4976775;28;20054;-69
2023/06/25 03:41:30;;;;;;;12.70;5.80;;;;;;;14.60;54.05;102034.78;4966667;28;20042;-72
2023/06/25 03:43:57;;;;;;;10.50;5.57;;;;;;;14.64;53.88;102041.63;4975373;28;20049;-72
2023/06/25 03:46:22;;;;;;;11.40;6.05;;;;;;;14.64;53.67;102046.91;4972120;28;20030;-71
2023/06/25 03:48:49;;;;;;;13.25;6.35;;;;;;;14.57;53.65;102048.06;4961026;28;20042;-71
2023/06/25 03:51:14;;;;;;;8.88;5.68;;;;;;;14.54;53.93;102043.78;4975854;28;20041;-71
2023/06/25 03:53:41;;;;;;;9.98;5.38;;;;;;;14.69;53.84;102042.31;4973796;28;20094;-70
2023/06/25 03:56:07;;;;;;;10.43;5.07;;;;;;;14.86;53.44;102040.81;4969335;28;20770;-69
2023/06/25 03:58:36;;;;;;;6.95;4.50;;;;;;;14.96;53.17;102039.50;4974240;28;20066;-70
2023/06/25 04:01:02;;;;;;;10.25;5.75;;;;;;;15.05;52.89;102038.28;4964336;28;20038;-71
2023/06/25 04:03:30;;;;;;;6.53;4.18;;;;;;;15.10;53.07;102036.31;4977201;28;20121;-70
2023/06/25 04:05:58;;;;;;;8.75;5.75;;;;;;;15.25;52.23;102040.13;4958920;28;20031;-70
2023/06/25 04:08:26;;;;;;;10.73;5.90;;;;;;;15.40;52.18;102038.66;4961412;28;20053;-70
2023/06/25 04:10:54;;;;;;;11.73;7.10;;;;;;;15.52;51.46;102036.31;4963472;28;20045;-70
2023/06/25 04:13:26;;;;;;;10.23;5.85;;;;;;;15.64;51.82;102031.44;4974333;28;20063;-69
2023/06/25 04:15:52;;;;;;;10.75;5.72;;;;;;;15.81;51.38;102039.47;4959909;28;20062;-68
2023/06/25 04:18:17;;;;;;;10.63;5.88;;;;;;;15.88;51.28;102038.28;4964524;28;20042;-70
2023/06/25 04:20:42;;;;;;;12.65;7.05;;;;;;;15.96;51.06;102030.06;4976509;28;20633;-70
2023/06/25 04:23:17;;;;;;;14.45;7.95;;;;;;;15.97;51.10;102032.63;4974547;28;20061;-71
2023/06/25 04:25:43;;;;;;;10.98;6.43;;;;;;;15.96;51.21;102023.00;4947797;28;20035;-70
2023/06/25 04:28:22;;;;;;;12.93;7.70;;;;;;;16.09;50.56;102022.50;4955162;28;20083;-70
2023/06/25 04:30:59;;;;;;;10.57;6.32;;;;;;;16.32;50.96;102030.19;4961979;28;20044;-70
2023/06/25 04:33:24;;;;;;;11.02;5.35;;;;;;;16.62;50.62;102024.41;4946160;28;20047;-69
2023/06/25 04:35:50;;;;;;;8.68;5.65;;;;;;;16.86;50.15;102024.19;4975392;28;20023;-71
2023/06/25 04:38:22;;;;;;;10.65;6.32;;;;;;;17.01;49.68;102023.44;4961204;28;20106;-71
2023/06/25 04:40:48;;;;;;;13.00;6.20;;;;;;;17.20;48.56;102024.25;4971621;28;20043;-69
2023/06/25 04:43:24;;;;;;;5.68;4.82;;;;;;;17.41;49.01;102021.47;4950723;28;20054;-70
2023/06/25 04:45:52;;;;;;;8.27;4.88;;;;;;;17.61;49.00;102031.88;4972528;28;20031;-70
2023/06/25 04:48:20;;;;;;;15.57;6.85;;;;;;;17.68;47.49;102018.34;4959854;28;20523;-71
2023/06/25 04:50:47;;;;;;;15.05;7.05;;;;;;;17.72;47.61;102019.91;4965949;28;20035;-72
2023/06/25 04:53:13;;;;;;;11.50;7.68;;;;;;;17.88;46.72;102017.31;4965458;28;20065;-70
2023/06/25 04:55:38;;;;;;;13.95;6.72;;;;;;;18.04;47.17;102016.41;4964044;28;20133;-70
2023/06/25 04:58:04;;;;;;;8.10;5.38;;;;;;;18.27;47.60;102016.97;4963166;28;20043;-70
2023/06/25 05:00:29;;;;;;;12.40;7.38;;;;;;;18.46;46.14;102017.66;4965349;28;20433;-71
2023/06/25 05:02:55;;;;;;;13.88;6.95;;;;;;;18.50;45.88;102013.06;4963531;28;20042;-69
2023/06/25 05:05:20;;;;;;;14.80;7.72;;;;;;;18.70;45.43;102009.31;4962666;28;20040;-68
2023/06/25 05:07:47;;;;;;;8.95;5.97;;;;;;;19.24;45.24;102012.38;4963224;28;20038;-69
2023/06/25 05:10:15;;;;;;;8.35;6.20;;;;;;;20.39;41.96;102014.25;4965573;28;20121;-69
2023/06/25 05:12:40;;;;;;;11.85;6.88;;;;;;;22.15;39.13;102010.34;4965659;28;20050;-69
2023/06/25 05:15:06;;;;;;;8.07;6.18;;;;;;;23.68;35.35;102015.88;4961871;28;20034;-70
2023/06/25 05:17:33;;;;;;;10.07;5.93;;;;;;;24.44;33.10;102010.78;4962689;28;20529;-70
2023/06/25 05:19:59;;;;;;;7.40;4.50;;;;;;;25.32;32.15;102012.34;4963059;28;20037;-71
2023/06/25 05:22:25;;;;;;;10.52;6.20;;;;;;;25.59;31.21;102001.13;4960890;28;20054;-72
2023/06/25 05:24:50;;;;;;;8.27;5.40;;;;;;;25.42;30.59;102010.59;4964618;28;20042;-76
2023/06/25 05:27:16;;;;;;;4.90;4.40;;;;;;;25.48;30.98;102006.53;4964465;28;20057;-72
2023/06/25 05:29:42;;;;;;;6.97;5.35;;;;;;;26.22;30.09;102006.31;4981924;28;20047;-71
2023/06/25 05:32:08;;;;;;;7.55;4.63;;;;;;;26.46;29.97;102005.06;4977983;28;20107;-70
2023/06/25 05:34:33;;;;;;;5.65;3.42;;;;;;;26.65;28.90;102002.44;4966713;28;20491;-69
2023/06/25 05:36:59;;;;;;;5.65;3.83;;;;;;;26.95;28.42;102010.47;4963000;28;20062;-70
2023/06/25 05:39:28;;;;;;;11.95;4.05;;;;;;;27.19;27.58;101999.31;4969750;28;20317;-69
2023/06/25 05:41:58;;;;;;;5.60;4.65;;;;;;;26.58;28.64;102004.00;4968150;28;20038;-70
2023/06/25 05:44:27;;;;;;;9.02;6.22;;;;;;;26.64;29.28;102000.72;4962714;28;20026;-69
2023/06/25 05:46:53;;;;;;;6.57;5.75;;;;;;;27.11;28.72;101998.19;4962664;28;20046;-69
2023/06/25 05:49:19;;;;;;;12.35;6.32;;;;;;;27.82;28.21;102002.22;4966161;28;20058;-70
2023/06/25 05:51:44;;;;;;;11.07;7.35;;;;;;;27.95;28.43;102001.06;4959469;28;20061;-70
2023/06/25 05:54:10;;;;;;;11.20;6.63;;;;;;;28.19;27.61;101997.81;4962110;28;20113;-70
2023/06/25 05:56:35;;;;;;;11.43;6.88;;;;;;;28.20;28.17;101996.84;4970591;28;20105;-70
2023/06/25 05:59:01;;;;;;;8.25;6.35;;;;;;;29.07;27.10;101988.06;4971993;28;20064;-71
2023/06/25 06:01:26;;;;;;;11.60;6.55;;;;;;;29.30;26.91;101988.38;4959717;28;20376;-71
2023/06/25 06:03:52;;;;;;;6.45;5.75;;;;;;;29.58;26.40;101980.13;4964444;28;22728;-71
2023/06/25 06:06:18;;;;;;;9.70;6.28;;;;;;;29.22;26.42;101985.66;4961306;28;20026;-70
2023/06/25 06:08:44;;;;;;;9.88;6.53;;;;;;;28.73;26.95;101980.72;4963645;28;20038;-72
2023/06/25 06:11:10;;;;;;;8.57;6.22;;;;;;;28.41;26.65;101981.28;4964931;28;20030;-72
2023/06/25 06:13:37;;;;;;;9.55;6.05;;;;;;;28.26;27.46;101989.00;4973741;28;20117;-73
2023/06/25 06:16:03;;;;;;;10.50;7.07;;;;;;;28.77;27.80;101981.28;4967035;28;20177;-72
2023/06/25 06:18:28;;;;;;;9.45;6.55;;;;;;;29.21;26.93;101985.81;4960973;28;20125;-73
2023/06/25 06:20:54;;;;;;;8.05;5.93;;;;;;;29.42;27.14;101988.97;4965726;28;20689;-73
2023/06/25 06:23:19;;;;;;;8.40;5.15;;;;;;;29.33;26.18;101984.56;4962585;28;20068;-73
2023/06/25 06:25:45;;;;;;;9.65;5.05;;;;;;;29.08;26.41;101984.38;4965789;28;20163;-72
2023/06/25 06:28:10;;;;;;;11.77;6.43;;;;;;;29.11;26.52;101973.31;4979857;28;20050;-74
2023/06/25 06:30:36;;;;;;;5.40;4.47;;;;;;;28.98;26.45;101977.41;4976483;28;20061;-74
2023/06/25 06:33:01;;;;;;;4.38;3.05;;;;;;;29.37;25.36;101969.75;4970624;28;20182;-73
2023/06/25 06:35:27;;;;;;;9.05;4.30;;;;;;;29.10;25.52;101971.59;4975122;28;20093;-73
2023/06/25 06:37:53;;;;;;;6.43;4.10;;;;;;;28.32;26.61;101972.28;4961753;28;20185;-71
2023/06/25 06:40:18;;;;;;;4.38;3.45;;;;;;;28.83;26.38;101969.03;4961741;28;20035;-70
2023/06/25 06:42:44;;;;;;;5.13;3.95;;;;;;;29.08;25.77;101968.22;4978128;28;20039;-71
2023/06/25 06:45:22;;;;;;;5.97;4.03;;;;;;;29.15;25.45;101963.91;4965643;28;20031;-72
2023/06/25 06:47:47;;;;;;;4.40;3.85;;;;;;;30.08;24.61;101959.66;4959765;28;20050;-71
2023/06/25 06:50:13;;;;;;;8.77;2.70;;;;;;;30.88;23.95;101950.94;4978422;28;20073;-72
2023/06/25 06:52:38;;;;;;;4.95;3.53;;;;;;;30.61;24.21;101955.69;4957971;28;20142;-71
2023/06/25 06:55:04;;;;;;;3.53;2.88;;;;;;;31.01;23.75;101953.97;4960839;28;20295;-70
2023/06/25 06:57:29;;;;;;;4.00;2.67;;;;;;;31.07;23.41;101950.59;4963886;28;20129;-71
2023/06/25 06:59:57;;;;;;;2.67;2.47;;;;;;;30.82;22.63;101951.63;4963944;28;20041;-71
2023/06/25 07:02:23;;;;;;;4.28;2.20;;;;;;;31.23;22.75;101952.41;4963314;28;20058;-71
2023/06/25 07:04:51;;;;;;;2.90;2.17;;;;;;;30.69;23.27;101949.44;5011944;23;20049;-78
2023/06/25 07:07:17;;;;;;;3.03;2.63;;;;;;;31.52;22.15;101943.72;5007613;28;20745;-80
2023/06/25 07:09:53;;;;;;;4.18;2.88;;;;;;;31.60;22.41;101943.69;4986705;28;20041;-81
2023/06/25 07:12:20;;;;;;;5.57;3.33;;;;;;;30.98;22.96;101943.47;4973920;28;20045;-81
2023/06/25 07:14:45;;;;;;;6.88;3.20;;;;;;;30.58;23.06;101946.06;4974193;28;20174;-81
2023/06/25 07:17:11;;;;;;;4.68;3.30;;;;;;;30.69;23.51;101947.59;4985941;28;20128;-80
2023/06/25 07:19:37;;;;;;;6.43;3.15;;;;;;;30.52;23.75;101944.03;4991736;28;20615;-78
2023/06/25 07:22:03;;;;;;;8.10;4.38;;;;;;;30.42;24.78;101945.19;4955020;28;20049;-80
2023/06/25 07:24:28;;;;;;;8.75;4.07;;;;;;;30.61;23.62;101947.59;4973730;28;20041;-75
2023/06/25 07:26:54;;;;;;;8.68;4.40;;;;;;;31.18;23.24;101939.44;4970615;28;20029;-81
2023/06/25 07:29:20;;;;;;;6.50;4.53;;;;;;;31.11;23.08;101934.88;4986262;28;20033;-78
2023/06/25 07:31:46;;;;;;;4.97;4.35;;;;;;;31.32;23.22;101942.44;5007055;28;20487;-80
2023/06/25 07:34:12;;;;;;;5.43;3.40;;;;;;;31.60;22.63;101934.72;4996656;28;20049;-80
2023/06/25 07:36:38;;;;;;;3.88;3.45;;;;;;;31.45;22.69;101926.53;4988529;28;20029;-79
2023/06/25 07:39:04;;;;;;;4.40;3.92;;;;;;;31.30;23.25;101931.81;4991767;28;20042;-79
2023/06/25 07:41:30;;;;;;;5.00;3.80;;;;;;;31.19;21.94;101930.31;4991159;28;20037;-79
2023/06/25 07:43:56;;;;;;;4.25;2.90;;;;;;;31.77;21.59;101930.94;4968709;28;20110;-80
2023/06/25 07:46:23;;;;;;;5.93;3.63;;;;;;;32.02;21.94;101934.34;4985411;28;20488;-79
2023/06/25 07:48:49;;;;;;;4.78;3.47;;;;;;;31.88;22.22;101935.09;4977621;28;20148;-79
2023/06/25 07:51:14;;;;;;;4.03;3.63;;;;;;;32.37;21.36;101931.25;4994562;28;20029;-81
2023/06/25 07:53:40;;;;;;;4.45;3.05;;;;;;;32.01;22.22;101929.16;4984221;28;20890;-78
2023/06/25 07:56:06;;;;;;;5.03;2.72;;;;;;;33.41;20.92;101939.53;4993960;28;20056;-80
2023/06/25 07:58:33;;;;;;;5.63;3.47;;;;;;;33.38;20.74;101923.66;4985695;28;20056;-81
2023/06/25 08:00:59;;;;;;;6.72;3.63;;;;;;;33.77;20.14;101927.91;4976837;28;20037;-78
2023/06/25 08:03:25;;;;;;;8.98;4.50;;;;;;;34.23;19.60;101927.56;4974171;28;20112;-78
2023/06/25 08:05:51;;;;;;;6.53;4.68;;;;;;;33.59;20.72;101926.44;4995939;28;20037;-79
2023/06/25 08:08:17;;;;;;;9.23;4.82;;;;;;;33.53;20.52;101924.50;4994590;28;20076;-79
2023/06/25 08:10:43;;;;;;;4.07;2.60;;;;;;;34.43;19.30;101922.31;4976374;28;20684;-80
2023/06/25 08:13:08;;;;;;;4.05;3.63;;;;;;;36.27;17.96;101914.47;4994511;28;20275;-79
2023/06/25 08:15:34;;;;;;;7.25;5.15;;;;;;;36.63;17.08;101929.56;4992793;28;20042;-78
2023/06/25 08:17:59;;;;;;;5.30;4.03;;;;;;;36.49;17.40;101925.13;5009072;28;20676;-79
2023/06/25 08:20:25;;;;;;;7.10;5.82;;;;;;;34.75;18.46;101926.34;4993483;28;20067;-78
2023/06/25 08:22:51;;;;;;;8.23;6.00;;;;;;;33.46;21.17;101926.28;5012807;28;20048;-76
2023/06/25 08:25:21;;;;;;;6.13;5.22;;;;;;;34.28;19.72;101925.13;4994632;28;20874;-79
2023/06/25 08:27:47;;;;;;;6.93;5.22;;;;;;;34.66;19.44;101919.38;4976045;28;20045;-78
2023/06/25 08:30:13;;;;;;;12.73;6.85;;;;;;;34.40;19.12;101918.13;4986478;28;20323;-77
2023/06/25 08:32:38;;;;;;;6.50;5.80;;;;;;;34.20;19.56;101917.97;4974465;28;20056;-80
2023/06/25 08:35:04;;;;;;;6.65;6.03;;;;;;;33.71;19.81;101915.97;4994238;28;20459;-80
2023/06/25 08:37:29;;;;;;;6.75;6.00;;;;;;;33.72;19.56;101900.53;4992936;28;20557;-79
2023/06/25 08:39:55;;;;;;;6.65;6.05;;;;;;;33.64;20.57;101907.72;4996387;28;20041;-79
2023/06/25 08:42:20;;;;;;;9.70;5.13;;;;;;;33.68;20.38;101908.19;4989775;28;20122;-79
2023/06/25 08:44:46;;;;;;;6.45;5.70;;;;;;;33.36;20.83;101906.75;5008757;28;20843;-78
2023/06/25 08:47:18;;;;;;;4.75;3.90;;;;;;;33.11;21.11;101907.03;5004131;28;20053;-80
2023/06/25 08:49:48;;;;;;;8.25;5.00;;;;;;;34.34;21.18;101902.63;5009297;28;20040;-80
2023/06/25 08:52:16;;;;;;;4.95;4.55;;;;;;;34.96;19.04;101892.84;4973839;28;20041;-78
2023/06/25 08:54:44;;;;;;;4.68;4.15;;;;;;;34.53;20.12;101894.84;4992621;28;20033;-78
2023/06/25 08:57:10;;;;;;;5.95;5.35;;;;;;;34.48;19.06;101893.53;4987404;28;20083;-78
2023/06/25 08:59:36;;;;;;;6.95;5.82;;;;;;;35.38;19.39;101896.44;4992938;28;20376;-78
2023/06/25 09:02:01;;;;;;;5.70;5.10;;;;;;;36.35;18.54;101886.19;5009841;28;20048;-80
2023/06/25 09:04:27;;;;;;;6.57;5.25;;;;;;;35.55;18.46;101883.31;4990901;28;20074;-79
2023/06/25 09:06:52;;;;;;;7.13;4.85;;;;;;;35.28;19.37;101877.78;4992632;28;20378;-79
2023/06/25 09:09:18;;;;;;;8.00;5.47;;;;;;;35.29;18.41;101873.16;5015916;28;20017;-81
2023/06/25 09:11:43;;;;;;;6.18;5.43;;;;;;;35.31;18.25;101871.09;5006971;28;20044;-83
2023/06/25 09:14:08;;;;;;;5.38;4.90;;;;;;;34.65;19.13;101869.69;4986399;28;20033;-80
2023/06/25 09:16:50;;;;;;;4.55;4.18;;;;;;;35.02;20.04;101883.09;4975634;28;20065;-81
2023/06/25 09:19:20;;;;;;;4.57;4.18;;;;;;;35.51;18.22;101876.63;4972166;28;20046;-80
2023/06/25 09:21:46;;;;;;;6.03;5.43;;;;;;;35.08;19.10;101872.25;4993270;28;20060;-81
2023/06/25 09:24:17;;;;;;;7.18;5.07;;;;;;;34.34;18.47;101869.25;4999376;28;20045;-81
2023/06/25 09:26:52;;;;;;;5.40;5.00;;;;;;;35.20;18.28;101864.38;5007964;28;20033;-79
2023/06/25 09:29:20;;;;;;;5.32;4.82;;;;;;;35.08;18.58;101863.28;4997598;28;20797;-79
2023/06/25 09:31:47;;;;;;;6.40;5.30;;;;;;;33.93;20.45;101864.44;4996461;28;20044;-80
2023/06/25 09:34:17;;;;;;;6.95;4.90;;;;;;;33.63;19.93;101867.25;4982302;28;20030;-79
2023/06/25 09:36:44;;;;;;;9.13;6.77;;;;;;;33.37;20.19;101874.06;4995802;28;20040;-79
2023/06/25 09:39:11;;;;;;;6.22;5.32;;;;;;;32.93;20.25;101865.97;5015886;28;20024;-75
2023/06/25 09:41:40;;;;;;;4.25;3.88;;;;;;;33.70;21.01;101861.91;5003969;28;20044;-75
2023/06/25 09:44:06;;;;;;;5.63;5.15;;;;;;;34.40;20.29;101863.88;4967655;28;20053;-79
2023/06/25 09:46:34;;;;;;;5.03;4.55;;;;;;;33.12;21.08;101853.72;4972363;28;20041;-77
2023/06/25 09:49:01;;;;;;;5.43;3.92;;;;;;;32.54;22.99;101856.19;4995267;28;20068;-80
2023/06/25 09:51:33;;;;;;;4.68;4.20;;;;;;;31.13;23.38;101851.88;5001643;28;20052;-78
2023/06/25 09:54:03;;;;;;;4.45;4.05;;;;;;;31.24;23.81;101850.63;4986999;28;20038;-80
2023/06/25 09:56:33;;;;;;;3.95;3.55;;;;;;;31.55;22.73;101851.50;4995620;28;20113;-78
2023/06/25 09:59:02;;;;;;;6.88;5.47;;;;;;;31.33;22.98;101846.88;5012825;22;20050;-73
2023/06/25 10:01:30;;;;;;;6.72;4.88;;;;;;;31.06;23.78;101851.72;4993150;28;20046;-74
2023/06/25 10:03:58;;;;;;;6.88;4.65;;;;;;;31.15;23.50;101844.44;4968325;28;20092;-74
2023/06/25 10:06:34;;;;;;;5.90;4.05;;;;;;;31.29;22.57;101840.97;4968820;28;20402;-73
2023/06/25 10:09:12;;;;;;;3.93;3.43;;;;;;;31.29;22.73;101838.28;4961330;28;20889;-73
2023/06/25 10:11:51;;;;;;;5.55;4.38;;;;;;;30.97;23.34;101841.94;4967058;28;20031;-73
2023/06/25 10:14:26;;;;;;;5.75;4.25;;;;;;;30.92;22.74;101834.38;4967541;28;20050;-74
2023/06/25 10:16:59;;;;;;;4.93;3.72;;;;;;;30.82;23.72;101828.31;4958115;28;20097;-74
2023/06/25 10:19:32;;;;;;;3.83;3.53;;;;;;;31.07;22.62;101821.03;4970166;28;20768;-75
2023/06/25 10:22:03;;;;;;;5.05;4.55;;;;;;;31.77;22.94;101822.00;4983952;28;20208;-74
2023/06/25 10:24:48;;;;;;;4.72;4.22;;;;;;;31.16;22.50;101824.53;4970004;28;21015;-75
2023/06/25 10:27:37;;;;;;;6.43;4.30;;;;;;;29.97;23.65;101818.78;4964926;28;20046;-74
2023/06/25 10:30:19;;;;;;;5.07;4.60;;;;;;;29.18;24.91;101827.34;4969635;28;20531;-75
2023/06/25 10:32:57;;;;;;;5.05;4.30;;;;;;;29.06;25.39;101816.81;4965464;28;20037;-75
2023/06/25 10:35:34;;;;;;;6.63;4.28;;;;;;;29.52;24.77;101809.25;4973747;28;20117;-73
2023/06/25 10:38:16;;;;;;;4.32;4.00;;;;;;;31.31;23.08;101811.09;4943193;28;20693;-75
2023/06/25 10:40:49;;;;;;;5.15;4.07;;;;;;;31.57;22.07;101811.66;4969921;28;20034;-74
2023/06/25 10:43:32;;;;;;;5.75;3.97;;;;;;;32.06;22.06;101809.63;4969545;28;20775;-75
2023/06/25 10:46:02;;;;;;;7.43;4.60;;;;;;;32.30;21.99;101797.72;4969774;28;20026;-74
2023/06/25 10:48:47;;;;;;;5.33;3.90;;;;;;;31.51;22.70;101806.13;4956093;28;20062;-74
2023/06/25 10:51:35;;;;;;;5.65;5.15;;;;;;;30.11;24.10;101797.56;4985188;28;20288;-73
2023/06/25 10:54:05;;;;;;;4.88;4.38;;;;;;;30.61;24.79;101799.22;4958830;28;20062;-74
2023/06/25 10:56:35;;;;;;;5.90;4.65;;;;;;;31.14;22.59;101788.78;4962775;28;20046;-74
2023/06/25 10:59:08;;;;;;;7.18;3.78;;;;;;;31.33;22.76;101795.56;4965340;28;20563;-74
2023/06/25 11:01:37;;;;;;;4.45;4.00;;;;;;;31.32;23.16;101788.50;4967286;28;20046;-73
2023/06/25 11:04:13;;;;;;;4.90;3.17;;;;;;;31.90;22.50;101786.25;4969218;28;20042;-74
2023/06/25 11:06:38;;;;;;;4.68;4.28;;;;;;;31.96;21.25;101778.28;4963922;28;20113;-76
2023/06/25 11:09:04;;;;;;;3.47;3.17;;;;;;;30.91;22.42;101769.75;4969161;28;20042;-74
2023/06/25 11:11:29;;;;;;;3.17;2.88;;;;;;;31.30;23.25;101780.56;4982921;28;20564;-74
2023/06/25 11:13:54;;;;;;;4.15;3.75;;;;;;;31.19;21.83;101779.09;4983469;28;20738;-75
2023/06/25 11:16:20;;;;;;;5.15;3.30;;;;;;;30.84;23.36;101771.47;4972340;28;20042;-75
2023/06/25 11:18:50;;;;;;;5.60;3.92;;;;;;;31.01;23.27;101773.09;4965920;28;20189;-74
2023/06/25 11:21:16;;;;;;;6.47;3.45;;;;;;;31.49;22.64;101760.38;4968039;28;20129;-74
2023/06/25 11:23:44;;;;;;;6.57;4.30;;;;;;;31.38;22.32;101768.84;4967294;28;20042;-74